sensor_id;sensor_type;location;lat;lon;timestamp;P1;durP1;ratioP1;P2;durP2;ratioP2
58978;SDS011;44763;50.464;30.612;2023-07-13T05:01:09;1.20;;;0.90;;
58978;SDS011;44763;50.464;30.612;2023-07-13T05:03:12;8.40;;;0.70;;
58978;SDS011;44763;50.464;30.612;2023-07-13T05:05:14;3.80;;;0.80;;
58978;SDS011;44763;50.464;30.612;2023-07-13T05:07:16;1.00;;;0.70;;
58978;SDS011;44763;50.464;30.612;2023-07-13T05:09:17;4.80;;;1.00;;
58978;SDS011;44763;50.464;30.612;2023-07-13T05:11:19;3.70;;;1.20;;
58978;SDS011;44763;50.464;30.612;2023-07-13T05:13:21;6.10;;;0.80;;
58978;SDS011;44763;50.464;30.612;2023-07-13T05:15:27;3.30;;;0.70;;
58978;SDS011;44763;50.464;30.612;2023-07-13T05:17:28;1.50;;;0.70;;
58978;SDS011;44763;50.464;30.612;2023-07-13T05:19:30;2.60;;;1.10;;
58978;SDS011;44763;50.464;30.612;2023-07-13T05:21:33;2.10;;;1.70;;
58978;SDS011;44763;50.464;30.612;2023-07-13T05:23:35;2.30;;;1.10;;
58978;SDS011;44763;50.464;30.612;2023-07-13T05:25:37;2.30;;;1.10;;
58978;SDS011;44763;50.464;30.612;2023-07-13T05:27:39;3.00;;;1.90;;
58978;SDS011;44763;50.464;30.612;2023-07-13T05:29:40;3.00;;;0.90;;
58978;SDS011;44763;50.464;30.612;2023-07-13T05:31:42;2.20;;;1.30;;
58978;SDS011;44763;50.464;30.612;2023-07-13T05:33:44;2.90;;;1.20;;
58978;SDS011;44763;50.464;30.612;2023-07-13T05:35:45;5.60;;;1.30;;
58978;SDS011;44763;50.464;30.612;2023-07-13T05:37:47;1.70;;;0.80;;
58978;SDS011;44763;50.464;30.612;2023-07-13T05:39:49;0.80;;;0.70;;
58978;SDS011;44763;50.464;30.612;2023-07-13T05:41:51;3.10;;;1.10;;
58978;SDS011;44763;50.464;30.612;2023-07-13T05:43:52;3.30;;;1.10;;
58978;SDS011;44763;50.464;30.612;2023-07-13T05:45:55;2.80;;;2.20;;
58978;SDS011;44763;50.464;30.612;2023-07-13T05:47:58;3.00;;;1.10;;
58978;SDS011;44763;50.464;30.612;2023-07-13T05:49:59;1.80;;;1.60;;
58978;SDS011;44763;50.464;30.612;2023-07-13T05:52:04;1.60;;;1.30;;
58978;SDS011;44763;50.464;30.612;2023-07-13T05:54:06;4.30;;;2.80;;
58978;SDS011;44763;50.464;30.612;2023-07-13T05:56:07;2.40;;;1.70;;
58978;SDS011;44763;50.464;30.612;2023-07-13T05:58:09;3.50;;;0.80;;
58978;SDS011;44763;50.464;30.612;2023-07-13T06:00:12;6.50;;;2.00;;
58978;SDS011;44763;50.464;30.612;2023-07-13T06:02:14;2.50;;;1.50;;
58978;SDS011;44763;50.464;30.612;2023-07-13T06:04:16;2.50;;;1.40;;
58978;SDS011;44763;50.464;30.612;2023-07-13T06:06:18;3.00;;;2.00;;
58978;SDS011;44763;50.464;30.612;2023-07-13T06:08:19;3.30;;;1.80;;
58978;SDS011;44763;50.464;30.612;2023-07-13T06:10:21;2.30;;;1.00;;
58978;SDS011;44763;50.464;30.612;2023-07-13T06:12:23;2.00;;;1.10;;
58978;SDS011;44763;50.464;30.612;2023-07-13T06:14:24;4.60;;;1.00;;
58978;SDS011;44763;50.464;30.612;2023-07-13T06:16:26;1.80;;;1.10;;
58978;SDS011;44763;50.464;30.612;2023-07-13T06:18:28;3.10;;;1.10;;
58978;SDS011;44763;50.464;30.612;2023-07-13T06:20:29;3.60;;;1.40;;
58978;SDS011;44763;50.464;30.612;2023-07-13T06:22:31;2.70;;;1.40;;
58978;SDS011;44763;50.464;30.612;2023-07-13T06:24:33;2.00;;;0.90;;
58978;SDS011;44763;50.464;30.612;2023-07-13T06:26:35;4.70;;;1.50;;
58978;SDS011;44763;50.464;30.612;2023-07-13T06:28:36;4.00;;;0.80;;
58978;SDS011;44763;50.464;30.612;2023-07-13T06:30:39;3.30;;;1.30;;
58978;SDS011;44763;50.464;30.612;2023-07-13T06:32:41;8.00;;;1.00;;
58978;SDS011;44763;50.464;30.612;2023-07-13T06:34:42;5.30;;;1.00;;
58978;SDS011;44763;50.464;30.612;2023-07-13T06:36:44;3.60;;;1.30;;
58978;SDS011;44763;50.464;30.612;2023-07-13T06:38:46;2.00;;;0.50;;
58978;SDS011;44763;50.464;30.612;2023-07-13T06:40:47;5.50;;;1.40;;
58978;SDS011;44763;50.464;30.612;2023-07-13T06:42:49;1.70;;;1.00;;
58978;SDS011;44763;50.464;30.612;2023-07-13T06:44:51;3.40;;;0.70;;
58978;SDS011;44763;50.464;30.612;2023-07-13T06:46:52;2.40;;;1.00;;
58978;SDS011;44763;50.464;30.612;2023-07-13T06:48:55;1.60;;;1.10;;
58978;SDS011;44763;50.464;30.612;2023-07-13T06:50:57;4.30;;;1.10;;
58978;SDS011;44763;50.464;30.612;2023-07-13T06:52:59;5.00;;;1.40;;
58978;SDS011;44763;50.464;30.612;2023-07-13T06:55:01;7.70;;;1.40;;
58978;SDS011;44763;50.464;30.612;2023-07-13T06:57:02;7.20;;;1.30;;
58978;SDS011;44763;50.464;30.612;2023-07-13T06:59:04;4.80;;;1.70;;
58978;SDS011;44763;50.464;30.612;2023-07-13T07:01:06;6.50;;;1.60;;
58978;SDS011;44763;50.464;30.612;2023-07-13T07:03:09;4.20;;;1.30;;
58978;SDS011;44763;50.464;30.612;2023-07-13T07:05:10;2.60;;;1.70;;
58978;SDS011;44763;50.464;30.612;2023-07-13T07:07:12;5.60;;;1.70;;
58978;SDS011;44763;50.464;30.612;2023-07-13T07:09:14;5.10;;;1.20;;
58978;SDS011;44763;50.464;30.612;2023-07-13T07:11:18;6.80;;;2.30;;
58978;SDS011;44763;50.464;30.612;2023-07-13T07:13:23;10.10;;;1.70;;
58978;SDS011;44763;50.464;30.612;2023-07-13T07:15:25;7.90;;;1.80;;
58978;SDS011;44763;50.464;30.612;2023-07-13T07:17:28;6.40;;;1.50;;
58978;SDS011;44763;50.464;30.612;2023-07-13T07:19:30;5.50;;;1.90;;
58978;SDS011;44763;50.464;30.612;2023-07-13T07:21:32;3.60;;;1.50;;
58978;SDS011;44763;50.464;30.612;2023-07-13T07:23:34;2.40;;;0.90;;
58978;SDS011;44763;50.464;30.612;2023-07-13T07:25:35;4.70;;;1.20;;
58978;SDS011;44763;50.464;30.612;2023-07-13T07:27:43;8.40;;;2.30;;
58978;SDS011;44763;50.464;30.612;2023-07-13T07:29:48;7.50;;;1.80;;
58978;SDS011;44763;50.464;30.612;2023-07-13T07:32:09;3.40;;;1.50;;
58978;SDS011;44763;50.464;30.612;2023-07-13T07:34:31;15.80;;;1.40;;
58978;SDS011;44763;50.464;30.612;2023-07-13T07:36:34;3.80;;;1.20;;
58978;SDS011;44763;50.464;30.612;2023-07-13T07:38:39;5.40;;;1.30;;
58978;SDS011;44763;50.464;30.612;2023-07-13T07:40:42;2.30;;;1.50;;
58978;SDS011;44763;50.464;30.612;2023-07-13T07:42:47;2.50;;;1.40;;
58978;SDS011;44763;50.464;30.612;2023-07-13T07:44:49;3.80;;;1.50;;
58978;SDS011;44763;50.464;30.612;2023-07-13T07:46:51;2.70;;;1.20;;
58978;SDS011;44763;50.464;30.612;2023-07-13T07:48:53;3.00;;;1.40;;
58978;SDS011;44763;50.464;30.612;2023-07-13T07:50:54;4.60;;;1.10;;
58978;SDS011;44763;50.464;30.612;2023-07-13T07:52:56;6.60;;;1.60;;
58978;SDS011;44763;50.464;30.612;2023-07-13T07:54:58;6.40;;;2.50;;
58978;SDS011;44763;50.464;30.612;2023-07-13T07:57:03;4.10;;;1.00;;
58978;SDS011;44763;50.464;30.612;2023-07-13T07:59:08;2.20;;;1.00;;
58978;SDS011;44763;50.464;30.612;2023-07-13T08:01:13;4.40;;;1.70;;
58978;SDS011;44763;50.464;30.612;2023-07-13T08:03:17;11.30;;;1.40;;
58978;SDS011;44763;50.464;30.612;2023-07-13T08:05:22;1.70;;;1.20;;
58978;SDS011;44763;50.464;30.612;2023-07-13T08:07:43;3.10;;;1.10;;
58978;SDS011;44763;50.464;30.612;2023-07-13T08:09:44;3.30;;;1.40;;
58978;SDS011;44763;50.464;30.612;2023-07-13T08:11:48;3.60;;;1.20;;
58978;SDS011;44763;50.464;30.612;2023-07-13T08:13:53;2.60;;;1.20;;
58978;SDS011;44763;50.464;30.612;2023-07-13T08:15:56;4.10;;;0.70;;
58978;SDS011;44763;50.464;30.612;2023-07-13T08:18:00;2.70;;;1.50;;
58978;SDS011;44763;50.464;30.612;2023-07-13T08:20:02;4.60;;;1.00;;
58978;SDS011;44763;50.464;30.612;2023-07-13T08:22:04;3.40;;;1.20;;
58978;SDS011;44763;50.464;30.612;2023-07-13T08:24:06;3.30;;;0.80;;
58978;SDS011;44763;50.464;30.612;2023-07-13T08:26:09;2.00;;;1.10;;
58978;SDS011;44763;50.464;30.612;2023-07-13T08:28:10;4.20;;;0.90;;
58978;SDS011;44763;50.464;30.612;2023-07-13T08:30:12;2.00;;;0.80;;
58978;SDS011;44763;50.464;30.612;2023-07-13T08:32:14;1.90;;;1.20;;
58978;SDS011;44763;50.464;30.612;2023-07-13T08:34:16;1.40;;;1.20;;
58978;SDS011;44763;50.464;30.612;2023-07-13T08:36:21;2.10;;;1.30;;
58978;SDS011;44763;50.464;30.612;2023-07-13T08:38:23;3.20;;;1.20;;
58978;SDS011;44763;50.464;30.612;2023-07-13T08:40:25;3.90;;;2.20;;
58978;SDS011;44763;50.464;30.612;2023-07-13T08:42:33;5.40;;;4.80;;
58978;SDS011;44763;50.464;30.612;2023-07-13T08:47:11;2.10;;;1.50;;
58978;SDS011;44763;50.464;30.612;2023-07-13T08:49:17;2.10;;;1.20;;
58978;SDS011;44763;50.464;30.612;2023-07-13T08:53:54;4.00;;;1.90;;
58978;SDS011;44763;50.464;30.612;2023-07-13T08:56:01;4.30;;;1.30;;
58978;SDS011;44763;50.464;30.612;2023-07-13T08:58:14;1.80;;;1.40;;
58978;SDS011;44763;50.464;30.612;2023-07-13T09:02:34;7.00;;;1.70;;
58978;SDS011;44763;50.464;30.612;2023-07-13T09:04:59;1.50;;;1.10;;
58978;SDS011;44763;50.464;30.612;2023-07-13T09:07:29;3.50;;;1.50;;
58978;SDS011;44763;50.464;30.612;2023-07-13T09:12:08;6.20;;;1.40;;
58978;SDS011;44763;50.464;30.612;2023-07-13T09:16:46;2.40;;;1.10;;
58978;SDS011;44763;50.464;30.612;2023-07-13T09:18:51;1.70;;;1.00;;
58978;SDS011;44763;50.464;30.612;2023-07-13T09:20:59;2.60;;;1.50;;
58978;SDS011;44763;50.464;30.612;2023-07-13T09:23:07;1.50;;;0.90;;
58978;SDS011;44763;50.464;30.612;2023-07-13T09:27:36;1.70;;;0.90;;
58978;SDS011;44763;50.464;30.612;2023-07-13T09:29:41;2.60;;;1.10;;
58978;SDS011;44763;50.464;30.612;2023-07-13T09:31:53;2.60;;;1.00;;
58978;SDS011;44763;50.464;30.612;2023-07-13T09:34:02;1.90;;;1.20;;
58978;SDS011;44763;50.464;30.612;2023-07-13T09:38:33;1.10;;;0.80;;
58978;SDS011;44763;50.464;30.612;2023-07-13T09:40:39;1.20;;;0.70;;
58978;SDS011;44763;50.464;30.612;2023-07-13T09:43:00;3.10;;;1.80;;
58978;SDS011;44763;50.464;30.612;2023-07-13T09:45:04;3.90;;;0.90;;
58978;SDS011;44763;50.464;30.612;2023-07-13T09:47:18;1.40;;;1.30;;
58978;SDS011;44763;50.464;30.612;2023-07-13T09:49:43;3.50;;;0.90;;
58978;SDS011;44763;50.464;30.612;2023-07-13T09:51:47;1.40;;;0.90;;
58978;SDS011;44763;50.464;30.612;2023-07-13T09:53:49;5.90;;;1.20;;
58978;SDS011;44763;50.464;30.612;2023-07-13T09:55:51;6.00;;;0.90;;
58978;SDS011;44763;50.464;30.612;2023-07-13T09:57:54;3.90;;;1.00;;
58978;SDS011;44763;50.464;30.612;2023-07-13T09:59:56;2.40;;;0.60;;
58978;SDS011;44763;50.464;30.612;2023-07-13T10:02:00;6.40;;;1.20;;
58978;SDS011;44763;50.464;30.612;2023-07-13T10:04:03;1.60;;;1.10;;
58978;SDS011;44763;50.464;30.612;2023-07-13T10:06:17;3.50;;;1.10;;
58978;SDS011;44763;50.464;30.612;2023-07-13T10:08:25;1.20;;;1.10;;
58978;SDS011;44763;50.464;30.612;2023-07-13T10:10:29;2.00;;;1.10;;
58978;SDS011;44763;50.464;30.612;2023-07-13T10:12:36;4.20;;;1.10;;
58978;SDS011;44763;50.464;30.612;2023-07-13T10:14:38;1.50;;;1.20;;
58978;SDS011;44763;50.464;30.612;2023-07-13T10:16:41;3.90;;;1.50;;
58978;SDS011;44763;50.464;30.612;2023-07-13T10:18:55;4.00;;;1.60;;
58978;SDS011;44763;50.464;30.612;2023-07-13T10:22:02;3.70;;;1.00;;
58978;SDS011;44763;50.464;30.612;2023-07-13T10:23:37;1.00;;;0.80;;
58978;SDS011;44763;50.464;30.612;2023-07-13T10:25:41;2.60;;;1.20;;
58978;SDS011;44763;50.464;30.612;2023-07-13T10:27:46;6.70;;;1.40;;
58978;SDS011;44763;50.464;30.612;2023-07-13T10:29:52;1.80;;;0.80;;
58978;SDS011;44763;50.464;30.612;2023-07-13T10:31:59;1.80;;;1.00;;
58978;SDS011;44763;50.464;30.612;2023-07-13T10:34:01;1.20;;;0.90;;
58978;SDS011;44763;50.464;30.612;2023-07-13T10:38:30;1.10;;;0.90;;
58978;SDS011;44763;50.464;30.612;2023-07-13T10:40:34;1.10;;;1.00;;
58978;SDS011;44763;50.464;30.612;2023-07-13T10:42:39;1.00;;;0.80;;
58978;SDS011;44763;50.464;30.612;2023-07-13T10:44:45;1.90;;;0.80;;
58978;SDS011;44763;50.464;30.612;2023-07-13T10:46:46;1.70;;;1.00;;
58978;SDS011;44763;50.464;30.612;2023-07-13T10:48:51;3.90;;;1.30;;
58978;SDS011;44763;50.464;30.612;2023-07-13T10:50:56;3.00;;;0.90;;
58978;SDS011;44763;50.464;30.612;2023-07-13T10:53:02;1.80;;;1.70;;
58978;SDS011;44763;50.464;30.612;2023-07-13T10:57:43;2.00;;;1.60;;
58978;SDS011;44763;50.464;30.612;2023-07-13T10:59:49;2.00;;;1.00;;
58978;SDS011;44763;50.464;30.612;2023-07-13T11:02:25;1.60;;;1.10;;
58978;SDS011;44763;50.464;30.612;2023-07-13T11:04:29;2.20;;;1.20;;
58978;SDS011;44763;50.464;30.612;2023-07-13T11:06:43;6.90;;;1.40;;
58978;SDS011;44763;50.464;30.612;2023-07-13T11:10:56;1.20;;;1.10;;
58978;SDS011;44763;50.464;30.612;2023-07-13T11:12:58;6.90;;;1.30;;
58978;SDS011;44763;50.464;30.612;2023-07-13T11:15:02;4.30;;;1.10;;
58978;SDS011;44763;50.464;30.612;2023-07-13T11:17:29;3.20;;;1.40;;
58978;SDS011;44763;50.464;30.612;2023-07-13T11:19:38;3.50;;;1.20;;
58978;SDS011;44763;50.464;30.612;2023-07-13T11:28:43;2.40;;;1.30;;
58978;SDS011;44763;50.464;30.612;2023-07-13T11:33:02;2.00;;;1.90;;
58978;SDS011;44763;50.464;30.612;2023-07-13T11:35:20;4.70;;;2.60;;
58978;SDS011;44763;50.464;30.612;2023-07-13T11:37:25;1.80;;;1.60;;
58978;SDS011;44763;50.464;30.612;2023-07-13T11:41:37;1.80;;;1.50;;
58978;SDS011;44763;50.464;30.612;2023-07-13T11:43:45;6.50;;;2.70;;
58978;SDS011;44763;50.464;30.612;2023-07-13T11:45:50;4.00;;;1.70;;
58978;SDS011;44763;50.464;30.612;2023-07-13T11:47:52;2.60;;;1.60;;
58978;SDS011;44763;50.464;30.612;2023-07-13T11:49:55;5.40;;;1.70;;
58978;SDS011;44763;50.464;30.612;2023-07-13T11:51:58;3.50;;;2.40;;
58978;SDS011;44763;50.464;30.612;2023-07-13T11:54:04;1.50;;;1.30;;
58978;SDS011;44763;50.464;30.612;2023-07-13T11:56:29;1.70;;;1.60;;
58978;SDS011;44763;50.464;30.612;2023-07-13T11:58:33;7.00;;;2.10;;
58978;SDS011;44763;50.464;30.612;2023-07-13T12:00:36;2.70;;;1.60;;
58978;SDS011;44763;50.464;30.612;2023-07-13T12:02:40;1.90;;;1.80;;
58978;SDS011;44763;50.464;30.612;2023-07-13T12:04:44;1.30;;;1.20;;
58978;SDS011;44763;50.464;30.612;2023-07-13T12:06:47;1.80;;;1.70;;
58978;SDS011;44763;50.464;30.612;2023-07-13T12:08:57;2.50;;;2.30;;
58978;SDS011;44763;50.464;30.612;2023-07-13T12:11:05;2.50;;;2.10;;
58978;SDS011;44763;50.464;30.612;2023-07-13T12:13:18;2.30;;;2.10;;
58978;SDS011;44763;50.464;30.612;2023-07-13T12:15:21;2.20;;;2.00;;
58978;SDS011;44763;50.464;30.612;2023-07-13T12:17:27;2.60;;;2.10;;
58978;SDS011;44763;50.464;30.612;2023-07-13T12:19:30;2.70;;;2.50;;
58978;SDS011;44763;50.464;30.612;2023-07-13T12:21:39;4.60;;;2.30;;
58978;SDS011;44763;50.464;30.612;2023-07-13T12:23:44;3.60;;;2.00;;
58978;SDS011;44763;50.464;30.612;2023-07-13T12:25:49;2.20;;;2.00;;
58978;SDS011;44763;50.464;30.612;2023-07-13T12:27:53;3.40;;;3.10;;
58978;SDS011;44763;50.464;30.612;2023-07-13T12:30:00;6.80;;;3.50;;
58978;SDS011;44763;50.464;30.612;2023-07-13T12:32:07;4.30;;;2.60;;
58978;SDS011;44763;50.464;30.612;2023-07-13T12:34:11;2.70;;;2.30;;
58978;SDS011;44763;50.464;30.612;2023-07-13T12:36:16;3.20;;;2.80;;
58978;SDS011;44763;50.464;30.612;2023-07-13T12:38:19;5.30;;;2.80;;
58978;SDS011;44763;50.464;30.612;2023-07-13T12:40:26;3.60;;;2.20;;
58978;SDS011;44763;50.464;30.612;2023-07-13T12:42:36;3.30;;;3.00;;
58978;SDS011;44763;50.464;30.612;2023-07-13T12:44:41;2.40;;;2.30;;
58978;SDS011;44763;50.464;30.612;2023-07-13T12:46:51;2.40;;;2.30;;
58978;SDS011;44763;50.464;30.612;2023-07-13T12:48:56;2.70;;;2.50;;
58978;SDS011;44763;50.464;30.612;2023-07-13T12:51:20;6.70;;;2.30;;
58978;SDS011;44763;50.464;30.612;2023-07-13T12:53:27;4.00;;;3.60;;
58978;SDS011;44763;50.464;30.612;2023-07-13T12:55:39;6.30;;;2.30;;
58978;SDS011;44763;50.464;30.612;2023-07-13T12:57:46;4.20;;;2.90;;
58978;SDS011;44763;50.464;30.612;2023-07-13T12:59:55;5.10;;;2.50;;
58978;SDS011;44763;50.464;30.612;2023-07-13T13:01:57;5.50;;;2.60;;
58978;SDS011;44763;50.464;30.612;2023-07-13T13:04:02;2.90;;;2.70;;
58978;SDS011;44763;50.464;30.612;2023-07-13T13:08:23;5.00;;;2.20;;
58978;SDS011;44763;50.464;30.612;2023-07-13T13:10:25;2.40;;;2.20;;
58978;SDS011;44763;50.464;30.612;2023-07-13T13:12:27;3.60;;;2.40;;
58978;SDS011;44763;50.464;30.612;2023-07-13T13:14:29;3.20;;;3.00;;
58978;SDS011;44763;50.464;30.612;2023-07-13T13:18:35;10.00;;;5.30;;
58978;SDS011;44763;50.464;30.612;2023-07-13T13:20:37;8.40;;;3.80;;
58978;SDS011;44763;50.464;30.612;2023-07-13T13:22:39;2.30;;;2.20;;
58978;SDS011;44763;50.464;30.612;2023-07-13T13:24:40;3.30;;;3.10;;
58978;SDS011;44763;50.464;30.612;2023-07-13T13:26:42;3.80;;;3.10;;
58978;SDS011;44763;50.464;30.612;2023-07-13T13:28:45;2.90;;;2.80;;
58978;SDS011;44763;50.464;30.612;2023-07-13T13:30:49;4.00;;;3.40;;
58978;SDS011;44763;50.464;30.612;2023-07-13T13:32:52;3.80;;;3.10;;
58978;SDS011;44763;50.464;30.612;2023-07-13T13:34:54;3.10;;;2.90;;
58978;SDS011;44763;50.464;30.612;2023-07-13T13:36:55;3.30;;;2.90;;
58978;SDS011;44763;50.464;30.612;2023-07-13T13:39:00;4.90;;;2.80;;
58978;SDS011;44763;50.464;30.612;2023-07-13T13:41:03;3.20;;;3.00;;
58978;SDS011;44763;50.464;30.612;2023-07-13T13:43:18;4.90;;;3.20;;
58978;SDS011;44763;50.464;30.612;2023-07-13T13:45:27;2.90;;;2.80;;
58978;SDS011;44763;50.464;30.612;2023-07-13T13:47:30;4.40;;;2.70;;
58978;SDS011;44763;50.464;30.612;2023-07-13T13:49:34;2.80;;;2.60;;
58978;SDS011;44763;50.464;30.612;2023-07-13T13:51:37;3.80;;;2.90;;
58978;SDS011;44763;50.464;30.612;2023-07-13T13:53:39;5.10;;;2.80;;
58978;SDS011;44763;50.464;30.612;2023-07-13T13:55:41;3.80;;;3.10;;
58978;SDS011;44763;50.464;30.612;2023-07-13T13:57:43;2.80;;;2.60;;
58978;SDS011;44763;50.464;30.612;2023-07-13T13:59:44;2.40;;;2.00;;
58978;SDS011;44763;50.464;30.612;2023-07-13T14:01:46;3.40;;;3.00;;
58978;SDS011;44763;50.464;30.612;2023-07-13T14:05:56;3.10;;;2.90;;
58978;SDS011;44763;50.464;30.612;2023-07-13T14:07:58;4.30;;;3.30;;
58978;SDS011;44763;50.464;30.612;2023-07-13T14:10:01;3.50;;;3.00;;
58978;SDS011;44763;50.464;30.612;2023-07-13T14:12:03;5.80;;;2.90;;
58978;SDS011;44763;50.464;30.612;2023-07-13T14:14:07;3.30;;;3.10;;
58978;SDS011;44763;50.464;30.612;2023-07-13T14:16:16;3.60;;;3.10;;
58978;SDS011;44763;50.464;30.612;2023-07-13T14:18:19;3.90;;;3.10;;
58978;SDS011;44763;50.464;30.612;2023-07-13T14:20:22;5.20;;;2.90;;
58978;SDS011;44763;50.464;30.612;2023-07-13T14:22:25;7.00;;;2.90;;
58978;SDS011;44763;50.464;30.612;2023-07-13T14:24:28;6.60;;;3.80;;
58978;SDS011;44763;50.464;30.612;2023-07-13T14:26:30;3.00;;;2.80;;
58978;SDS011;44763;50.464;30.612;2023-07-13T14:28:33;4.00;;;3.20;;
58978;SDS011;44763;50.464;30.612;2023-07-13T14:30:36;5.20;;;2.90;;
58978;SDS011;44763;50.464;30.612;2023-07-13T14:32:38;7.80;;;2.80;;
58978;SDS011;44763;50.464;30.612;2023-07-13T14:34:39;6.90;;;3.10;;
58978;SDS011;44763;50.464;30.612;2023-07-13T14:36:44;5.10;;;3.10;;
58978;SDS011;44763;50.464;30.612;2023-07-13T14:38:48;3.40;;;3.10;;
58978;SDS011;44763;50.464;30.612;2023-07-13T14:40:50;3.50;;;3.30;;
58978;SDS011;44763;50.464;30.612;2023-07-13T14:42:52;7.00;;;2.90;;
58978;SDS011;44763;50.464;30.612;2023-07-13T14:44:54;5.00;;;3.40;;
58978;SDS011;44763;50.464;30.612;2023-07-13T14:47:01;3.30;;;3.00;;
58978;SDS011;44763;50.464;30.612;2023-07-13T14:51:32;8.10;;;4.70;;
58978;SDS011;44763;50.464;30.612;2023-07-13T14:53:35;8.50;;;4.20;;
58978;SDS011;44763;50.464;30.612;2023-07-13T14:55:39;4.70;;;3.20;;
58978;SDS011;44763;50.464;30.612;2023-07-13T14:57:41;3.60;;;3.30;;
58978;SDS011;44763;50.464;30.612;2023-07-13T14:59:43;3.30;;;2.90;;
58978;SDS011;44763;50.464;30.612;2023-07-13T15:01:48;3.40;;;3.00;;
58978;SDS011;44763;50.464;30.612;2023-07-13T15:03:51;3.70;;;2.90;;
58978;SDS011;44763;50.464;30.612;2023-07-13T15:05:54;6.10;;;3.50;;
58978;SDS011;44763;50.464;30.612;2023-07-13T15:07:59;5.20;;;3.50;;
58978;SDS011;44763;50.464;30.612;2023-07-13T15:12:34;3.80;;;3.50;;
58978;SDS011;44763;50.464;30.612;2023-07-13T15:14:36;3.30;;;3.10;;
58978;SDS011;44763;50.464;30.612;2023-07-13T15:16:38;3.30;;;3.00;;
58978;SDS011;44763;50.464;30.612;2023-07-13T15:18:39;3.80;;;3.40;;
58978;SDS011;44763;50.464;30.612;2023-07-13T15:20:42;4.30;;;3.60;;
58978;SDS011;44763;50.464;30.612;2023-07-13T15:22:46;5.00;;;3.00;;
58978;SDS011;44763;50.464;30.612;2023-07-13T15:24:50;3.50;;;3.20;;
58978;SDS011;44763;50.464;30.612;2023-07-13T15:26:51;4.50;;;3.30;;
58978;SDS011;44763;50.464;30.612;2023-07-13T15:28:53;6.50;;;3.50;;
58978;SDS011;44763;50.464;30.612;2023-07-13T15:30:55;3.30;;;3.20;;
58978;SDS011;44763;50.464;30.612;2023-07-13T15:32:57;3.70;;;3.40;;
58978;SDS011;44763;50.464;30.612;2023-07-13T15:35:04;3.30;;;3.10;;
58978;SDS011;44763;50.464;30.612;2023-07-13T15:37:13;4.50;;;3.70;;
58978;SDS011;44763;50.464;30.612;2023-07-13T15:39:17;3.40;;;3.20;;
58978;SDS011;44763;50.464;30.612;2023-07-13T15:41:25;4.70;;;4.00;;
58978;SDS011;44763;50.464;30.612;2023-07-13T15:43:28;3.60;;;2.90;;
58978;SDS011;44763;50.464;30.612;2023-07-13T15:45:34;5.30;;;3.60;;
58978;SDS011;44763;50.464;30.612;2023-07-13T15:47:35;3.20;;;3.10;;
58978;SDS011;44763;50.464;30.612;2023-07-13T15:49:40;5.20;;;4.20;;
58978;SDS011;44763;50.464;30.612;2023-07-13T15:51:42;4.30;;;4.00;;
58978;SDS011;44763;50.464;30.612;2023-07-13T15:53:44;5.80;;;5.30;;
58978;SDS011;44763;50.464;30.612;2023-07-13T15:55:46;3.20;;;3.10;;
58978;SDS011;44763;50.464;30.612;2023-07-13T15:57:48;6.10;;;3.60;;
58978;SDS011;44763;50.464;30.612;2023-07-13T15:59:52;5.20;;;4.90;;
58978;SDS011;44763;50.464;30.612;2023-07-13T16:01:54;4.90;;;4.50;;
58978;SDS011;44763;50.464;30.612;2023-07-13T16:03:55;5.80;;;5.40;;
58978;SDS011;44763;50.464;30.612;2023-07-13T16:05:57;5.40;;;5.10;;
58978;SDS011;44763;50.464;30.612;2023-07-13T16:07:59;6.00;;;5.50;;
58978;SDS011;44763;50.464;30.612;2023-07-13T16:10:03;4.40;;;4.10;;
58978;SDS011;44763;50.464;30.612;2023-07-13T16:12:09;3.80;;;3.40;;
58978;SDS011;44763;50.464;30.612;2023-07-13T16:14:13;5.50;;;4.40;;
58978;SDS011;44763;50.464;30.612;2023-07-13T16:16:16;5.10;;;4.20;;
58978;SDS011;44763;50.464;30.612;2023-07-13T16:18:18;4.70;;;4.40;;
58978;SDS011;44763;50.464;30.612;2023-07-13T16:20:20;7.80;;;3.60;;
58978;SDS011;44763;50.464;30.612;2023-07-13T16:22:22;7.00;;;4.40;;
58978;SDS011;44763;50.464;30.612;2023-07-13T16:24:24;4.00;;;3.60;;
58978;SDS011;44763;50.464;30.612;2023-07-13T16:26:36;3.70;;;3.50;;
58978;SDS011;44763;50.464;30.612;2023-07-13T16:28:41;6.90;;;4.40;;
58978;SDS011;44763;50.464;30.612;2023-07-13T16:30:45;4.50;;;4.20;;
58978;SDS011;44763;50.464;30.612;2023-07-13T16:34:52;5.70;;;5.20;;
58978;SDS011;44763;50.464;30.612;2023-07-13T16:36:54;6.10;;;4.80;;
58978;SDS011;44763;50.464;30.612;2023-07-13T16:38:57;6.00;;;5.10;;
58978;SDS011;44763;50.464;30.612;2023-07-13T16:40:59;6.80;;;6.10;;
58978;SDS011;44763;50.464;30.612;2023-07-13T16:43:01;6.80;;;5.90;;
58978;SDS011;44763;50.464;30.612;2023-07-13T16:45:07;7.60;;;5.10;;
58978;SDS011;44763;50.464;30.612;2023-07-13T16:47:14;4.90;;;4.60;;
58978;SDS011;44763;50.464;30.612;2023-07-13T16:49:24;5.50;;;5.00;;
58978;SDS011;44763;50.464;30.612;2023-07-13T16:51:28;5.40;;;4.70;;
58978;SDS011;44763;50.464;30.612;2023-07-13T16:53:30;4.60;;;4.30;;
58978;SDS011;44763;50.464;30.612;2023-07-13T16:55:33;4.00;;;3.30;;
58978;SDS011;44763;50.464;30.612;2023-07-13T16:57:36;4.70;;;4.50;;
58978;SDS011;44763;50.464;30.612;2023-07-13T16:59:39;5.20;;;4.80;;
58978;SDS011;44763;50.464;30.612;2023-07-13T17:01:41;5.00;;;4.60;;
58978;SDS011;44763;50.464;30.612;2023-07-13T17:03:43;6.70;;;5.10;;
58978;SDS011;44763;50.464;30.612;2023-07-13T17:05:46;6.70;;;4.30;;
58978;SDS011;44763;50.464;30.612;2023-07-13T17:07:50;6.70;;;4.00;;
58978;SDS011;44763;50.464;30.612;2023-07-13T17:09:51;4.60;;;4.20;;
58978;SDS011;44763;50.464;30.612;2023-07-13T17:11:54;4.60;;;3.80;;
58978;SDS011;44763;50.464;30.612;2023-07-13T17:13:56;4.30;;;4.00;;
58978;SDS011;44763;50.464;30.612;2023-07-13T17:18:31;4.90;;;3.60;;
58978;SDS011;44763;50.464;30.612;2023-07-13T17:20:39;6.50;;;4.00;;
58978;SDS011;44763;50.464;30.612;2023-07-13T17:22:47;4.50;;;4.10;;
58978;SDS011;44763;50.464;30.612;2023-07-13T17:24:53;5.50;;;4.30;;
58978;SDS011;44763;50.464;30.612;2023-07-13T17:26:55;4.50;;;4.20;;
58978;SDS011;44763;50.464;30.612;2023-07-13T17:28:59;5.70;;;4.80;;
58978;SDS011;44763;50.464;30.612;2023-07-13T17:31:01;6.60;;;4.20;;
58978;SDS011;44763;50.464;30.612;2023-07-13T17:33:04;4.20;;;3.90;;
58978;SDS011;44763;50.464;30.612;2023-07-13T17:35:18;6.30;;;4.20;;
58978;SDS011;44763;50.464;30.612;2023-07-13T17:37:25;6.90;;;6.30;;
58978;SDS011;44763;50.464;30.612;2023-07-13T17:39:27;4.50;;;3.80;;
58978;SDS011;44763;50.464;30.612;2023-07-13T17:41:30;8.60;;;5.10;;
58978;SDS011;44763;50.464;30.612;2023-07-13T17:43:31;5.20;;;4.50;;
58978;SDS011;44763;50.464;30.612;2023-07-13T17:45:34;5.80;;;5.40;;
58978;SDS011;44763;50.464;30.612;2023-07-13T17:47:38;5.70;;;5.20;;
58978;SDS011;44763;50.464;30.612;2023-07-13T17:49:41;7.10;;;5.40;;
58978;SDS011;44763;50.464;30.612;2023-07-13T17:51:49;5.70;;;4.70;;
58978;SDS011;44763;50.464;30.612;2023-07-13T17:53:51;5.00;;;4.40;;
58978;SDS011;44763;50.464;30.612;2023-07-13T17:55:53;5.60;;;5.00;;
58978;SDS011;44763;50.464;30.612;2023-07-13T17:57:55;4.80;;;4.40;;
58978;SDS011;44763;50.464;30.612;2023-07-13T17:59:57;7.30;;;4.20;;
58978;SDS011;44763;50.464;30.612;2023-07-13T18:01:58;5.00;;;4.60;;
58978;SDS011;44763;50.464;30.612;2023-07-13T18:04:01;8.40;;;4.60;;
58978;SDS011;44763;50.464;30.612;2023-07-13T18:06:08;5.60;;;5.20;;
58978;SDS011;44763;50.464;30.612;2023-07-13T18:08:20;5.20;;;4.80;;
58978;SDS011;44763;50.464;30.612;2023-07-13T18:10:22;7.20;;;5.50;;